createdAt,value
2023-01-09T00:02:13.510Z,24.68
2023-01-09T00:07:17.660Z,24.69
2023-01-09T00:12:20.923Z,24.71
2023-01-09T00:17:23.963Z,24.71
2023-01-09T00:22:28.132Z,24.71
2023-01-09T00:27:32.520Z,24.73
2023-01-09T00:32:35.295Z,24.73
2023-01-09T00:37:39.396Z,24.72
2023-01-09T00:42:43.379Z,24.68
2023-01-09T00:47:51.329Z,24.71
2023-01-09T00:52:58.122Z,24.70
2023-01-09T00:58:00.933Z,24.73
2023-01-09T01:03:03.949Z,24.70
2023-01-09T01:08:12.819Z,24.64
2023-01-09T01:13:16.003Z,24.54
2023-01-09T01:18:18.799Z,24.41
2023-01-09T01:23:22.933Z,24.32
2023-01-09T01:28:25.822Z,24.23
2023-01-09T01:33:28.753Z,24.10
2023-01-09T01:38:33.888Z,24.05
2023-01-09T01:43:54.191Z,23.93
2023-01-09T01:49:02.091Z,23.88
2023-01-09T01:54:11.333Z,23.81
2023-01-09T01:59:20.349Z,23.69
2023-01-09T02:04:23.268Z,23.63
2023-01-09T02:09:27.815Z,23.56
2023-01-09T02:14:33.141Z,23.44
2023-01-09T02:20:09.854Z,23.32
2023-01-09T02:25:39.182Z,23.20
2023-01-09T02:30:45.656Z,23.12
2023-01-09T02:36:06.060Z,23.05
2023-01-09T02:41:15.699Z,22.94
2023-01-09T02:46:23.444Z,22.87
2023-01-09T02:51:36.493Z,22.77
2023-01-09T02:56:59.382Z,22.69
2023-01-09T03:02:34.458Z,22.61
2023-01-09T03:07:43.947Z,22.59
2023-01-09T03:12:51.083Z,22.55
2023-01-09T03:17:56.796Z,22.47
2023-01-09T03:23:01.932Z,22.42
2023-01-09T03:28:09.130Z,22.34
2023-01-09T03:33:13.206Z,22.30
2023-01-09T03:38:15.994Z,22.22
2023-01-09T03:43:19.032Z,22.17
2023-01-09T03:48:23.429Z,22.12
2023-01-09T03:53:28.362Z,22.06
2023-01-09T03:58:31.234Z,22.03
2023-01-09T04:03:35.836Z,22.00
2023-01-09T04:08:38.710Z,21.97
2023-01-09T04:13:42.216Z,21.93
2023-01-09T04:18:46.400Z,21.93
2023-01-09T04:23:49.199Z,21.93
2023-01-09T04:28:51.953Z,21.92
2023-01-09T04:33:56.084Z,21.89
2023-01-09T04:38:58.824Z,21.88
2023-01-09T04:44:01.591Z,21.84
2023-01-09T04:49:05.739Z,21.81
2023-01-09T04:54:08.712Z,21.79
2023-01-09T04:59:11.589Z,21.77
2023-01-09T05:04:15.879Z,21.76
2023-01-09T05:09:18.841Z,21.74
2023-01-09T05:14:21.829Z,21.72
2023-01-09T05:19:26.335Z,21.72
2023-01-09T05:24:29.434Z,21.69
2023-01-09T05:29:32.347Z,21.68
2023-01-09T05:34:36.463Z,21.68
2023-01-09T05:39:39.265Z,21.65
2023-01-09T05:44:42.067Z,21.64
2023-01-09T05:49:46.183Z,21.62
2023-01-09T05:54:48.962Z,21.62
2023-01-09T05:59:51.746Z,21.60
2023-01-09T06:04:55.847Z,21.59
2023-01-09T06:09:58.633Z,21.61
2023-01-09T06:15:01.360Z,21.58
2023-01-09T06:20:06.741Z,21.57
2023-01-09T06:25:10.554Z,21.56
2023-01-09T06:30:13.714Z,21.56
2023-01-09T06:35:20.504Z,21.54
2023-01-09T06:40:23.498Z,21.55
2023-01-09T06:45:26.321Z,21.55
2023-01-09T06:50:30.645Z,21.53
2023-01-09T06:55:33.921Z,21.53
2023-01-09T07:00:37.035Z,21.52
2023-01-09T07:05:44.010Z,21.51
2023-01-09T07:10:47.033Z,21.49
2023-01-09T07:15:50.394Z,21.48
2023-01-09T07:20:54.709Z,21.46
2023-01-09T07:25:58.298Z,21.45
2023-01-09T07:31:02.594Z,21.45
2023-01-09T07:36:07.759Z,21.43
2023-01-09T07:41:10.699Z,21.41
2023-01-09T07:46:13.545Z,21.39
2023-01-09T07:51:17.676Z,21.38
2023-01-09T07:56:20.447Z,21.36
2023-01-09T08:01:23.506Z,21.35
2023-01-09T08:06:27.869Z,21.30
2023-01-09T08:11:32.216Z,21.11
2023-01-09T08:16:35.238Z,21.03
2023-01-09T08:21:39.690Z,21.10
2023-01-09T08:26:42.489Z,21.08
2023-01-09T08:31:45.245Z,20.99
2023-01-09T08:36:49.640Z,20.34
2023-01-09T08:42:10.015Z,19.56
2023-01-09T08:47:14.425Z,20.41
2023-01-09T08:52:18.699Z,20.67
2023-01-09T08:57:21.475Z,20.77
2023-01-09T09:02:24.243Z,20.82
2023-01-09T09:07:28.495Z,20.84
2023-01-09T09:12:31.275Z,20.86
2023-01-09T09:17:34.101Z,20.87
2023-01-09T09:22:38.241Z,20.89
2023-01-09T09:27:41.031Z,20.90
2023-01-09T09:32:44.406Z,20.91
2023-01-09T09:37:56.485Z,20.91
2023-01-09T09:43:38.650Z,20.93
2023-01-09T09:48:49.374Z,20.92
2023-01-09T09:54:00.434Z,20.93
2023-01-09T09:59:09.068Z,20.94
2023-01-09T10:04:15.209Z,20.95
2023-01-09T10:09:30.231Z,20.96
2023-01-09T10:14:33.454Z,20.98
2023-01-09T10:19:59.818Z,21.00
2023-01-09T10:25:18.863Z,21.05
2023-01-09T10:30:37.769Z,21.05
2023-01-09T10:36:00.372Z,21.09
2023-01-09T10:41:11.463Z,21.13
2023-01-09T10:46:21.946Z,21.20
2023-01-09T10:51:28.553Z,21.28
2023-01-09T10:56:38.060Z,21.43
2023-01-09T11:01:42.274Z,21.60
2023-01-09T11:06:49.295Z,21.73
2023-01-09T11:11:53.623Z,21.87
2023-01-09T11:16:58.638Z,22.02
2023-01-09T11:22:09.732Z,22.11
2023-01-09T11:27:25.611Z,22.23
2023-01-09T11:32:30.615Z,22.35
2023-01-09T11:37:34.512Z,22.42
2023-01-09T11:42:58.926Z,22.53
2023-01-09T11:48:03.843Z,22.61
2023-01-09T11:53:15.971Z,22.67
2023-01-09T11:58:22.566Z,22.82
2023-01-09T12:03:42.541Z,22.92
2023-01-09T12:08:56.943Z,22.98
2023-01-09T12:14:34.054Z,23.03
2023-01-09T12:19:58.577Z,23.04
2023-01-09T12:25:29.234Z,23.08
2023-01-09T12:30:45.326Z,23.13
2023-01-09T12:36:02.562Z,23.23
2023-01-09T12:41:22.750Z,23.21
2023-01-09T12:46:34.872Z,23.24
2023-01-09T12:51:43.121Z,23.27
2023-01-09T12:56:50.800Z,23.28
2023-01-09T13:01:56.024Z,23.31
2023-01-09T13:07:03.804Z,23.32
2023-01-09T13:12:13.578Z,23.35
2023-01-09T13:17:24.512Z,23.44
2023-01-09T13:22:29.788Z,23.56
2023-01-09T13:27:38.977Z,23.50
2023-01-09T13:32:58.242Z,23.49
2023-01-09T13:38:01.337Z,23.52
2023-01-09T13:43:07.540Z,23.57
2023-01-09T13:48:29.645Z,23.60
2023-01-09T13:53:46.937Z,23.60
2023-01-09T13:59:03.752Z,23.61
2023-01-09T14:04:43.368Z,23.67
2023-01-09T14:09:53.535Z,23.73
2023-01-09T14:14:59.735Z,23.76
2023-01-09T14:20:05.622Z,23.73
2023-01-09T14:25:18.272Z,23.75
2023-01-09T14:30:33.320Z,23.74
2023-01-09T14:35:43.358Z,23.68
2023-01-09T14:40:54.728Z,23.72
2023-01-09T14:46:06.194Z,23.76
2023-01-09T14:51:17.270Z,23.78
2023-01-09T14:56:29.637Z,23.84
2023-01-09T15:01:34.202Z,23.82
2023-01-09T15:06:42.618Z,23.82
2023-01-09T15:11:47.560Z,23.85
2023-01-09T15:16:50.465Z,23.84
2023-01-09T15:22:05.356Z,23.83
2023-01-09T15:27:15.326Z,23.87
2023-01-09T15:32:19.825Z,23.86
2023-01-09T15:37:28.055Z,23.89
2023-01-09T15:43:00.563Z,23.88
2023-01-09T15:48:21.729Z,23.90
2023-01-09T15:53:27.011Z,23.88
2023-01-09T15:58:35.544Z,23.94
2023-01-09T16:03:39.213Z,23.94
2023-01-09T16:08:49.883Z,23.92
2023-01-09T16:13:56.665Z,23.91
2023-01-09T16:18:59.981Z,23.96
2023-01-09T16:24:07.432Z,23.95
2023-01-09T16:29:36.705Z,23.96
2023-01-09T16:34:44.115Z,23.95
2023-01-09T16:40:25.796Z,24.00
2023-01-09T16:45:32.476Z,23.97
2023-01-09T16:50:35.511Z,24.02
2023-01-09T16:55:39.497Z,24.02
2023-01-09T17:00:43.666Z,24.03
2023-01-09T17:05:47.387Z,24.04
2023-01-09T17:10:50.525Z,24.04
2023-01-09T17:15:55.832Z,24.04
2023-01-09T17:20:59.556Z,24.06
2023-01-09T17:26:19.881Z,24.04
2023-01-09T17:31:24.098Z,24.06
2023-01-09T17:36:31.867Z,24.07
2023-01-09T17:41:34.818Z,24.07
2023-01-09T17:46:40.263Z,24.05
2023-01-09T17:51:43.039Z,24.09
2023-01-09T17:56:49.475Z,24.12
2023-01-09T18:01:53.686Z,24.09
2023-01-09T18:06:56.693Z,24.12
2023-01-09T18:11:59.646Z,24.10
2023-01-09T18:17:05.361Z,24.09
2023-01-09T18:22:08.599Z,24.07
2023-01-09T18:27:11.323Z,24.07
2023-01-09T18:32:15.778Z,24.11
2023-01-09T18:37:18.624Z,24.09
2023-01-09T18:42:21.659Z,24.08
2023-01-09T18:47:25.770Z,24.10
2023-01-09T18:52:29.338Z,24.10
2023-01-09T18:57:32.402Z,24.08
2023-01-09T19:02:37.415Z,24.11
2023-01-09T19:07:40.192Z,24.09
2023-01-09T19:12:43.029Z,24.10
2023-01-09T19:17:50.217Z,24.10
2023-01-09T19:22:53.178Z,24.09
2023-01-09T19:27:56.120Z,24.10
2023-01-09T19:33:00.274Z,24.12
2023-01-09T19:38:03.031Z,24.10
2023-01-09T19:43:05.984Z,24.13
2023-01-09T19:48:10.162Z,24.10
2023-01-09T19:53:12.943Z,24.07
2023-01-09T19:58:15.849Z,24.12
2023-01-09T20:03:20.048Z,24.10
2023-01-09T20:08:22.835Z,24.12
2023-01-09T20:13:25.858Z,24.10
2023-01-09T20:18:30.802Z,24.11
2023-01-09T20:23:36.078Z,24.12
2023-01-09T20:28:38.923Z,24.08
2023-01-09T20:33:44.016Z,24.09
2023-01-09T20:38:46.742Z,24.10
2023-01-09T20:43:49.781Z,24.11
2023-01-09T20:48:56.575Z,24.10
2023-01-09T20:53:59.558Z,24.10
2023-01-09T20:59:02.450Z,24.09
2023-01-09T21:04:08.590Z,24.09
2023-01-09T21:09:11.483Z,24.09
2023-01-09T21:14:14.200Z,24.06
2023-01-09T21:19:18.619Z,24.10
2023-01-09T21:24:21.656Z,24.09
2023-01-09T21:29:24.495Z,24.15
2023-01-09T21:34:28.982Z,24.12
2023-01-09T21:39:32.335Z,24.14
2023-01-09T21:44:52.735Z,24.11
2023-01-09T21:49:57.190Z,24.11
2023-01-09T21:55:00.122Z,24.12
2023-01-09T22:00:03.017Z,24.14
2023-01-09T22:05:16.150Z,24.11
2023-01-09T22:10:19.122Z,24.14
2023-01-09T22:15:21.870Z,24.14
2023-01-09T22:20:26.072Z,24.11
2023-01-09T22:25:29.022Z,24.13
2023-01-09T22:30:31.901Z,24.16
2023-01-09T22:35:36.061Z,24.13
2023-01-09T22:40:40.044Z,24.17
2023-01-09T22:45:43.188Z,24.17
2023-01-09T22:50:47.319Z,24.15
2023-01-09T22:55:56.194Z,24.15
2023-01-09T23:00:59.533Z,24.15
2023-01-09T23:06:04.444Z,24.13
2023-01-09T23:11:10.188Z,24.15
2023-01-09T23:16:13.028Z,24.17
2023-01-09T23:21:17.175Z,24.15
2023-01-09T23:26:19.896Z,24.17
2023-01-09T23:31:22.685Z,24.14
2023-01-09T23:36:26.973Z,24.14
2023-01-09T23:41:43.642Z,24.16
2023-01-09T23:46:46.387Z,24.18
2023-01-09T23:51:50.533Z,24.17
2023-01-09T23:56:56.331Z,24.21
